Minot Air Force Base
KMIB : now visible

Airfield :











YOU CAN JOIN US ON...

 
LOGIN :

Register | Disclaimer

   EN    FR    IT 

 









Legend :    VFR   Marginal VFR   IFR   Intensive IFR   Very Intensive IFR
Visi :
Ceiling :
>= 8 km
>= 3000ft
5 to 8 km
1000 to 3000 ft
1500m to 5 km
500 to 1000 ft
800 to 1500m
200 to 500 ft
< 800m
< 200 ft
Symbols :   Thunderstorms  Fog  Heavy snow  Heavy precipitations  Wind > 20 kt






- Airport Elevation : 1667 ft


KMIB - Minot Air Force Base

CURRENT METAR :
  • 280906Z 00000KT 2 1/4SM BR SCT025 M03/M03 A2997 RMK AO2A VIS 2 1/4V3 VIS 3/8 RWY30 SLP174 $

EXPIRED METARs :
  • 280856Z 00000KT 3SM BR BKN025 M02/M03 A2997 RMK AO2A VIS 1 1/4 RWY30 BKN V OVC SLP173 60000 T10221029 53002 $
  • 280759Z 00000KT 3SM BR OVC024 M02/M02 A2997 RMK AO2A SLP174 T10161023 $
  • 280715Z 00000KT 3SM BR BKN018 M02/M03 A2997 RMK AO2A VIS 3/8 RWY30 SLP174 $

TAF TAF KMIB
Valid from the 28 at 09:00 until the 29 at 15:00 UTC


280900Z 2809/2915 VRB06KT 4800 BR BKN020 QNH2996INS
BECMG 2812/2813 28012KT 8000 BR SCT020 QNH2998INS
BECMG 2816/2817 28009KT 9999 NSW FEW060 QNH2979INS
BECMG 2905/2906 26009KT 8000 BR FEW100 QNH2963INS
BECMG 2913/2914 20009KT 9999 NSW FEW100 QNH2960INS TX05/2820Z TNM06/2812Z



MET'MAP, your aeronautical weather chart ! - Copyright ORBIFLY December 2007 - Disclaimer

ORBIFLY MET'MAP TEAM :

Programming & Development : Alexandra Zaïnal
Concept & original design : Baudouin d'Aumeries
Assistance for programming : Marc-Olivier Méhu
Technical & hardware support : Manuel Goepfert

Contact : metmap@orbifly.com




SOURCES & CREDITS :

   NOAA       Earth
Advisory